This is the latest recevied weather packets stored in our database for station/object OE-11073. If no packets are shown the sender has not sent any weather packets the latest 10 day(s).
| Time | Temp. | Humidity | Pressure | Rain* | Wind** | Luminosity | Snow |
|---|---|---|---|---|---|---|---|
| 1787856083 | 19.44° C | 80% | - | 0 mm | - | 0 W/m² | - |
| 1787855709 | 21.11° C | 73% | - | 0 mm | - | 0 W/m² | - |
| 1787855110 | 21.67° C | 72% | - | 0 mm | - | 0 W/m² | - |
| 1787854283 | 21.67° C | 70% | - | 0 mm | - | 0 W/m² | - |
| 1787853910 | 22.22° C | 72% | - | 0 mm | - | 15 W/m² | - |
| 1787852722 | 22.22° C | 74% | - | 0 mm | - | 38 W/m² | - |
| 1787852109 | 22.78° C | 74% | - | 0 mm | - | 61 W/m² | - |
| 1787851510 | 23.33° C | 75% | - | 0 mm | - | 69 W/m² | - |
| 1787850683 | 23.33° C | 75% | - | 0 mm | - | 61 W/m² | - |
| 1787850309 | 23.89° C | 74% | - | 0 mm | - | 77 W/m² | - |
| 1787849710 | 24.44° C | 76% | - | 0 mm | - | 77 W/m² | - |
| 1787848883 | 24.44° C | 74% | - | 0 mm | - | 107 W/m² | - |
| 1787848510 | 25° C | 69% | - | 0 mm | - | 138 W/m² | - |
| 1787847910 | 25.56° C | 68% | - | 0 mm | - | 107 W/m² | - |
| 1787847083 | 25.56° C | 72% | - | 0 mm | - | 138 W/m² | - |
| 1787846710 | 26.11° C | 64% | - | 0 mm | - | 168 W/m² | - |
| 1787846110 | 26.67° C | 58% | - | 0 mm | - | 222 W/m² | - |
| 1787845282 | 27.22° C | 63% | - | 0 mm | - | 260 W/m² | - |
| 1787844910 | 26.11° C | 72% | - | 0 mm | - | 207 W/m² | - |
| 1787844310 | 26.67° C | 60% | - | 0 mm | - | 191 W/m² | - |
| 1787843483 | 27.22° C | 55% | - | 0 mm | - | 222 W/m² | - |
| 1787843110 | 26.67° C | 64% | - | 0 mm | - | 268 W/m² | - |
| 1787842510 | 26.67° C | 64% | - | 0 mm | - | 260 W/m² | - |
| 1787841682 | 27.22° C | 63% | - | 0 mm | - | 283 W/m² | - |
| 1787841310 | 28.33° C | 44% | - | 0 mm | - | 314 W/m² | - |
* Rain latest hour (hover to see other rain measurements)
** Current wind speed in m/s (hover to see current wind gust speed)